Time;durP1;ratioP1;P1;durP2;ratioP2;P2;SDS_P1;SDS_P2;PMS_P1;PMS_P2;Temp;Humidity;BMP_temperature;BMP_pressure;BME280_temperature;BME280_humidity;BME280_pressure;Samples;Min_cycle;Max_cycle;Signal;HPM_P1;HPM_P2
2022/05/28 00:01:01;;;;;;;1.88;0.60;;;20.70;58.00;;;;;;5071367;28;20037;-56
2022/05/28 00:03:28;;;;;;;3.80;0.90;;;20.70;58.00;;;;;;5072451;28;20051;-56
2022/05/28 00:05:54;;;;;;;2.65;0.70;;;20.70;58.00;;;;;;5072061;28;20476;-56
2022/05/28 00:08:19;;;;;;;2.45;0.70;;;20.70;58.00;;;;;;5071750;28;20040;-57
2022/05/28 00:10:45;;;;;;;3.25;0.80;;;20.70;58.00;;;;;;5071666;28;20044;-57
2022/05/28 00:13:11;;;;;;;4.60;0.70;;;20.70;58.00;;;;;;5071589;28;20037;-57
2022/05/28 00:15:37;;;;;;;4.28;0.73;;;20.70;58.00;;;;;;5071458;28;20041;-56
2022/05/28 00:18:02;;;;;;;3.15;0.52;;;20.70;58.00;;;;;;5071869;28;20041;-57
2022/05/28 00:20:28;;;;;;;2.83;0.47;;;20.60;57.90;;;;;;5071775;28;20400;-57
2022/05/28 00:22:53;;;;;;;4.03;1.00;;;20.70;58.00;;;;;;5071201;28;20055;-57
2022/05/28 00:25:19;;;;;;;3.50;0.70;;;20.70;58.00;;;;;;5071429;28;20055;-57
2022/05/28 00:27:45;;;;;;;3.30;0.82;;;20.70;58.00;;;;;;5070634;28;20502;-57
2022/05/28 00:30:12;;;;;;;3.25;0.73;;;20.60;57.90;;;;;;5071367;28;20548;-57
2022/05/28 00:32:38;;;;;;;3.03;0.50;;;20.70;58.00;;;;;;5072457;28;20067;-57
2022/05/28 00:35:04;;;;;;;3.47;0.70;;;20.60;57.90;;;;;;5071714;28;20476;-57
2022/05/28 00:37:30;;;;;;;3.33;0.70;;;20.60;57.90;;;;;;5070638;28;20041;-57
2022/05/28 00:39:55;;;;;;;3.83;0.88;;;20.60;57.90;;;;;;5071774;28;20043;-57
2022/05/28 00:42:21;;;;;;;4.90;0.63;;;20.60;57.90;;;;;;5071985;28;20037;-57
2022/05/28 00:44:46;;;;;;;4.55;0.80;;;20.60;57.90;;;;;;5071299;28;20051;-57
2022/05/28 00:47:12;;;;;;;3.75;1.23;;;20.60;58.00;;;;;;5071987;28;20040;-57
2022/05/28 00:49:37;;;;;;;3.40;0.88;;;20.60;58.00;;;;;;5070283;28;20052;-57
2022/05/28 00:52:04;;;;;;;3.83;0.60;;;20.60;58.00;;;;;;5070735;28;20115;-57
2022/05/28 00:54:32;;;;;;;4.13;0.80;;;20.60;57.90;;;;;;5071661;28;20430;-57
2022/05/28 00:56:58;;;;;;;1.75;0.57;;;20.60;57.90;;;;;;5072102;28;20080;-57
2022/05/28 00:59:23;;;;;;;1.00;0.57;;;20.60;58.00;;;;;;5075898;28;20072;-57
2022/05/28 01:01:49;;;;;;;3.35;0.70;;;20.50;57.90;;;;;;5075474;28;20044;-57
2022/05/28 01:04:21;;;;;;;3.03;0.70;;;20.50;57.90;;;;;;5074801;28;20049;-56
2022/05/28 01:06:57;;;;;;;3.55;0.80;;;20.60;57.90;;;;;;5074211;28;20041;-56
2022/05/28 01:09:44;;;;;;;1.67;0.40;;;20.50;57.90;;;;;;5074364;28;20048;-56
2022/05/28 01:12:44;;;;;;;3.07;0.70;;;20.50;57.90;;;;;;5073799;28;20062;-56
2022/05/28 01:15:13;;;;;;;4.15;0.75;;;20.50;57.90;;;;;;5074036;28;20082;-56
2022/05/28 01:17:46;;;;;;;2.38;0.93;;;20.50;57.90;;;;;;5073590;28;20055;-56
2022/05/28 01:20:26;;;;;;;2.85;0.60;;;20.50;57.90;;;;;;5073839;28;20566;-56
2022/05/28 01:23:13;;;;;;;2.63;0.60;;;20.50;57.90;;;;;;5074002;28;20119;-57
2022/05/28 01:25:52;;;;;;;2.53;0.60;;;20.50;57.90;;;;;;5076151;28;20054;-57
2022/05/28 01:28:20;;;;;;;3.53;0.60;;;20.50;57.90;;;;;;5075019;28;20044;-57
2022/05/28 01:30:45;;;;;;;3.80;0.57;;;20.50;58.00;;;;;;5073960;28;20119;-56
2022/05/28 01:33:12;;;;;;;2.63;0.57;;;20.50;57.90;;;;;;5073519;28;20127;-57
2022/05/28 01:35:37;;;;;;;2.08;0.60;;;20.40;58.00;;;;;;5074012;28;20107;-56
2022/05/28 01:38:03;;;;;;;3.13;0.60;;;20.50;58.00;;;;;;5074968;28;20572;-57
2022/05/28 01:40:28;;;;;;;2.35;0.50;;;20.40;57.90;;;;;;5073161;28;20044;-57
2022/05/28 01:42:55;;;;;;;3.03;0.55;;;20.40;58.00;;;;;;5073509;28;20041;-57
2022/05/28 01:45:23;;;;;;;2.38;0.45;;;20.50;58.00;;;;;;5074134;28;20044;-57
2022/05/28 01:47:49;;;;;;;3.45;0.65;;;20.40;58.00;;;;;;5072627;28;20044;-57
2022/05/28 01:50:15;;;;;;;1.27;0.40;;;20.40;58.00;;;;;;5075009;28;20055;-56
2022/05/28 01:52:40;;;;;;;1.58;0.57;;;20.40;58.00;;;;;;5073138;28;20041;-57
2022/05/28 01:55:06;;;;;;;3.83;0.60;;;20.40;58.00;;;;;;5073194;28;20529;-57
2022/05/28 01:57:32;;;;;;;3.03;0.60;;;20.40;58.00;;;;;;5073681;28;20044;-56
2022/05/28 01:59:57;;;;;;;2.35;0.70;;;20.40;58.00;;;;;;5073765;28;20055;-57
2022/05/28 02:02:23;;;;;;;1.67;0.57;;;20.40;58.00;;;;;;5074520;28;20361;-57
2022/05/28 02:04:48;;;;;;;2.38;0.68;;;20.40;58.00;;;;;;5073769;28;20136;-56
2022/05/28 02:07:17;;;;;;;2.20;0.47;;;20.40;58.00;;;;;;5073619;28;20040;-57
2022/05/28 02:09:45;;;;;;;2.58;0.70;;;20.40;58.10;;;;;;5073654;28;20444;-57
2022/05/28 02:12:25;;;;;;;2.67;0.60;;;20.40;58.00;;;;;;5073418;28;20058;-57
2022/05/28 02:15:19;;;;;;;2.38;0.60;;;20.40;58.00;;;;;;5072052;28;20400;-57
2022/05/28 02:17:53;;;;;;;2.92;0.60;;;20.40;58.00;;;;;;5073933;28;20051;-57
2022/05/28 02:20:21;;;;;;;1.90;0.50;;;20.40;58.00;;;;;;5074234;28;20052;-57
2022/05/28 02:22:54;;;;;;;3.42;1.10;;;20.40;58.00;;;;;;5071753;28;20407;-57
2022/05/28 02:25:43;;;;;;;3.08;0.50;;;20.40;58.00;;;;;;5072929;28;20567;-56
2022/05/28 02:28:08;;;;;;;2.65;0.70;;;20.40;58.10;;;;;;5072465;28;20048;-57
2022/05/28 02:30:34;;;;;;;2.88;0.60;;;20.40;58.10;;;;;;5072653;28;20048;-56
2022/05/28 02:33:03;;;;;;;3.65;0.60;;;20.40;58.10;;;;;;5072645;28;20502;-56
2022/05/28 02:35:28;;;;;;;2.72;0.50;;;20.40;58.10;;;;;;5073113;28;20519;-56
2022/05/28 02:37:54;;;;;;;2.33;0.57;;;20.40;58.10;;;;;;5073824;28;20045;-57
2022/05/28 02:40:19;;;;;;;2.70;0.70;;;20.40;58.10;;;;;;5073953;28;20044;-56
2022/05/28 02:42:45;;;;;;;1.70;0.55;;;20.40;58.10;;;;;;5072978;28;20182;-57
2022/05/28 02:45:10;;;;;;;2.65;0.55;;;20.40;58.10;;;;;;5073839;28;20091;-57
2022/05/28 02:47:36;;;;;;;1.95;0.60;;;20.40;58.10;;;;;;5073976;28;20426;-56
2022/05/28 02:50:01;;;;;;;3.08;0.50;;;20.40;58.10;;;;;;5072929;28;20571;-56
2022/05/28 02:52:27;;;;;;;1.92;0.40;;;20.40;58.10;;;;;;5073551;28;20040;-56
2022/05/28 02:54:52;;;;;;;3.35;0.82;;;20.40;58.10;;;;;;5073172;28;20087;-57
2022/05/28 02:57:18;;;;;;;1.90;0.60;;;20.40;58.20;;;;;;5073082;28;20040;-57
2022/05/28 02:59:44;;;;;;;2.00;0.47;;;20.50;58.20;;;;;;5072946;28;20737;-57
2022/05/28 03:02:09;;;;;;;3.45;0.40;;;20.40;58.20;;;;;;5073676;28;20048;-57
2022/05/28 03:04:35;;;;;;;2.30;0.40;;;20.50;58.30;;;;;;5072558;28;20067;-56
2022/05/28 03:07:00;;;;;;;1.10;0.43;;;20.50;58.30;;;;;;5073115;28;20123;-57
2022/05/28 03:09:26;;;;;;;2.80;0.50;;;20.50;58.30;;;;;;5072977;28;20070;-56
2022/05/28 03:11:51;;;;;;;1.85;0.30;;;20.50;58.30;;;;;;5072155;28;20040;-56
2022/05/28 03:14:17;;;;;;;2.55;0.40;;;20.50;58.30;;;;;;5073252;28;20051;-57
2022/05/28 03:16:43;;;;;;;3.53;0.63;;;20.50;58.40;;;;;;5073025;28;20036;-56
2022/05/28 03:19:09;;;;;;;2.38;0.50;;;20.50;58.40;;;;;;5072005;28;20045;-57
2022/05/28 03:21:34;;;;;;;2.47;0.50;;;20.50;58.40;;;;;;5072936;28;20047;-57
2022/05/28 03:24:00;;;;;;;1.98;0.50;;;20.50;58.30;;;;;;5072883;28;20078;-57
2022/05/28 03:26:27;;;;;;;3.20;0.60;;;20.50;58.30;;;;;;5072286;28;20071;-57
2022/05/28 03:28:53;;;;;;;1.65;0.50;;;20.50;58.40;;;;;;5072590;28;20115;-57
2022/05/28 03:31:18;;;;;;;1.63;0.38;;;20.50;58.30;;;;;;5071940;28;20437;-57
2022/05/28 03:33:44;;;;;;;2.17;0.50;;;20.60;58.40;;;;;;5072540;28;20045;-57
2022/05/28 03:36:10;;;;;;;1.65;0.43;;;20.60;58.40;;;;;;5073009;28;20044;-57
2022/05/28 03:38:36;;;;;;;3.13;0.60;;;20.50;58.40;;;;;;5072059;28;20063;-57
2022/05/28 03:41:01;;;;;;;3.25;0.40;;;20.60;58.40;;;;;;5072279;28;20047;-57
2022/05/28 03:43:27;;;;;;;0.90;0.40;;;20.60;58.40;;;;;;5072763;28;20040;-57
2022/05/28 03:45:53;;;;;;;2.42;0.70;;;20.60;58.50;;;;;;5071826;28;20052;-57
2022/05/28 03:48:18;;;;;;;3.65;0.50;;;20.60;58.50;;;;;;5072863;28;20033;-56
2022/05/28 03:50:44;;;;;;;2.20;0.43;;;20.60;58.40;;;;;;5071099;28;20060;-56
2022/05/28 03:53:10;;;;;;;1.77;0.40;;;20.60;58.50;;;;;;5071593;28;20128;-56
2022/05/28 03:55:37;;;;;;;1.02;0.30;;;20.60;58.50;;;;;;5072661;28;20052;-57
2022/05/28 03:58:02;;;;;;;2.53;0.60;;;20.60;58.50;;;;;;5072190;28;20052;-56
2022/05/28 04:00:29;;;;;;;1.98;0.50;;;20.60;58.50;;;;;;5071993;28;20040;-56
2022/05/28 04:02:54;;;;;;;1.63;0.40;;;20.60;58.50;;;;;;5072177;28;20545;-56
2022/05/28 04:05:22;;;;;;;2.42;0.50;;;20.60;58.50;;;;;;5072019;28;20044;-56
2022/05/28 04:07:48;;;;;;;1.77;0.40;;;20.60;58.50;;;;;;5071123;28;20040;-56
2022/05/28 04:10:13;;;;;;;3.17;0.50;;;20.60;58.50;;;;;;5072355;28;20051;-56
2022/05/28 04:12:39;;;;;;;3.20;0.40;;;20.60;58.50;;;;;;5072530;28;20067;-56
2022/05/28 04:15:05;;;;;;;1.70;0.50;;;20.60;58.50;;;;;;5071433;28;20048;-56
2022/05/28 04:17:31;;;;;;;3.55;0.68;;;20.60;58.50;;;;;;5072550;28;20044;-56
2022/05/28 04:19:56;;;;;;;2.58;0.65;;;20.60;58.50;;;;;;5071952;28;20060;-56
2022/05/28 04:22:22;;;;;;;4.13;0.60;;;20.60;58.50;;;;;;5071797;28;20040;-56
2022/05/28 04:24:47;;;;;;;1.27;0.32;;;20.60;58.50;;;;;;5072047;28;20132;-56
2022/05/28 04:27:13;;;;;;;3.00;0.50;;;20.60;58.40;;;;;;5072097;28;20485;-56
2022/05/28 04:29:39;;;;;;;1.40;0.40;;;20.60;58.40;;;;;;5071428;28;20510;-56
2022/05/28 04:32:05;;;;;;;2.28;0.40;;;20.60;58.50;;;;;;5074735;28;20055;-57
2022/05/28 04:34:30;;;;;;;2.20;0.40;;;20.60;58.40;;;;;;5075861;28;20036;-57
2022/05/28 04:36:56;;;;;;;1.58;0.40;;;20.60;58.40;;;;;;5076213;28;20063;-57
2022/05/28 04:39:21;;;;;;;1.88;0.47;;;20.60;58.50;;;;;;5076229;28;20048;-57
2022/05/28 04:41:47;;;;;;;3.78;0.50;;;20.60;58.50;;;;;;5075092;28;20067;-56
2022/05/28 04:44:12;;;;;;;1.85;0.57;;;20.60;58.50;;;;;;5076348;28;20087;-57
2022/05/28 04:46:38;;;;;;;1.17;0.40;;;20.60;58.60;;;;;;5075930;28;20044;-56
2022/05/28 04:49:04;;;;;;;2.05;0.50;;;20.60;58.60;;;;;;5075239;28;20067;-56
2022/05/28 04:51:30;;;;;;;2.90;0.50;;;20.60;58.70;;;;;;5076049;28;20041;-56
2022/05/28 04:53:55;;;;;;;3.55;0.47;;;20.60;58.70;;;;;;5075504;28;20071;-57
2022/05/28 04:56:21;;;;;;;1.80;0.43;;;20.60;58.70;;;;;;5075002;28;20037;-56
2022/05/28 04:58:46;;;;;;;3.15;0.68;;;20.60;58.70;;;;;;5075721;28;20044;-57
2022/05/28 05:01:13;;;;;;;3.25;0.57;;;20.60;58.80;;;;;;5075813;28;20400;-56
2022/05/28 05:03:38;;;;;;;2.10;0.50;;;20.70;58.90;;;;;;5075044;28;20036;-57
2022/05/28 05:06:04;;;;;;;1.58;0.40;;;20.60;58.90;;;;;;5075091;28;20048;-57
2022/05/28 05:08:30;;;;;;;2.58;0.47;;;20.60;58.80;;;;;;5075014;28;20045;-56
2022/05/28 05:10:56;;;;;;;2.88;0.70;;;20.60;58.80;;;;;;5074260;28;20052;-57
2022/05/28 05:13:21;;;;;;;1.88;0.60;;;20.60;58.80;;;;;;5075540;28;20063;-57
2022/05/28 05:15:47;;;;;;;1.73;0.50;;;20.60;58.80;;;;;;5075309;28;20037;-57
2022/05/28 05:18:12;;;;;;;3.30;0.50;;;20.60;58.80;;;;;;5074964;28;20114;-56
2022/05/28 05:20:38;;;;;;;1.52;0.40;;;20.60;58.80;;;;;;5075125;28;20142;-56
2022/05/28 05:23:04;;;;;;;2.55;0.45;;;20.60;59.50;;;;;;5075316;28;20044;-57
2022/05/28 05:25:29;;;;;;;1.75;0.30;;;20.60;58.80;;;;;;5074048;28;20480;-56
2022/05/28 05:27:55;;;;;;;3.15;0.40;;;20.60;58.80;;;;;;5075200;28;20044;-57
2022/05/28 05:30:20;;;;;;;2.85;0.70;;;20.60;58.80;;;;;;5074970;28;20064;-57
2022/05/28 05:32:46;;;;;;;2.80;0.60;;;20.60;58.80;;;;;;5074151;28;20079;-57
2022/05/28 05:35:11;;;;;;;3.05;0.60;;;20.70;59.00;;;;;;5075139;28;20450;-57
2022/05/28 05:37:37;;;;;;;2.00;0.52;;;20.70;58.90;;;;;;5075020;28;20072;-57
2022/05/28 05:40:03;;;;;;;1.95;0.43;;;20.70;58.90;;;;;;5074040;28;20052;-57
2022/05/28 05:42:28;;;;;;;1.35;0.35;;;20.70;59.00;;;;;;5074668;28;20052;-57
2022/05/28 05:44:55;;;;;;;2.53;0.30;;;20.70;59.00;;;;;;5073814;28;20048;-57
2022/05/28 05:47:20;;;;;;;1.92;0.40;;;20.70;59.00;;;;;;5075144;28;20066;-57
2022/05/28 05:49:46;;;;;;;3.08;0.63;;;20.70;59.00;;;;;;5074794;28;20052;-57
2022/05/28 05:52:11;;;;;;;2.97;0.50;;;20.70;59.00;;;;;;5074299;28;20098;-57
2022/05/28 05:54:37;;;;;;;2.35;0.40;;;20.70;59.00;;;;;;5074903;28;20396;-56
2022/05/28 05:57:03;;;;;;;2.30;0.50;;;20.70;59.00;;;;;;5074543;28;20465;-57
2022/05/28 05:59:28;;;;;;;2.10;0.63;;;20.80;59.00;;;;;;5074151;28;20048;-57
2022/05/28 06:01:54;;;;;;;3.08;0.80;;;20.70;58.90;;;;;;5074410;28;20041;-57
2022/05/28 06:04:19;;;;;;;1.65;0.60;;;20.80;59.00;;;;;;5074777;28;20049;-57
2022/05/28 06:06:45;;;;;;;2.03;0.47;;;20.80;59.00;;;;;;5073728;28;20036;-57
2022/05/28 06:09:10;;;;;;;1.95;0.57;;;20.80;58.90;;;;;;5074300;28;20052;-57
2022/05/28 06:11:36;;;;;;;2.22;0.63;;;20.80;59.00;;;;;;5074564;28;20143;-57
2022/05/28 06:14:02;;;;;;;4.00;0.70;;;20.80;58.90;;;;;;5073559;28;20044;-57
2022/05/28 06:16:27;;;;;;;4.63;0.50;;;20.80;58.90;;;;;;5074618;28;20037;-57
2022/05/28 06:18:53;;;;;;;2.92;0.60;;;20.80;58.90;;;;;;5074122;28;20056;-56
2022/05/28 06:21:18;;;;;;;3.38;0.60;;;20.80;58.90;;;;;;5072666;28;20048;-56
2022/05/28 06:23:44;;;;;;;2.58;0.40;;;20.90;58.90;;;;;;5074007;28;20048;-57
2022/05/28 06:26:09;;;;;;;3.13;0.70;;;20.90;58.90;;;;;;5074259;28;20492;-56
2022/05/28 06:28:36;;;;;;;1.52;0.80;;;21.00;59.00;;;;;;5073650;28;20072;-57
2022/05/28 06:31:02;;;;;;;2.80;0.60;;;21.00;59.00;;;;;;5073908;28;20048;-57
2022/05/28 06:33:28;;;;;;;2.63;0.65;;;21.00;59.00;;;;;;5074347;28;20094;-56
2022/05/28 06:35:57;;;;;;;3.85;0.50;;;21.00;59.00;;;;;;5073179;28;20438;-56
2022/05/28 06:38:23;;;;;;;2.80;0.57;;;21.10;59.00;;;;;;5074119;28;20110;-56
2022/05/28 06:40:49;;;;;;;2.15;0.60;;;21.10;59.00;;;;;;5073491;28;20488;-56
2022/05/28 06:43:15;;;;;;;5.82;0.68;;;21.10;59.00;;;;;;5072713;28;20044;-56
2022/05/28 06:45:40;;;;;;;7.72;0.80;;;21.10;58.90;;;;;;5073096;28;20040;-56
2022/05/28 06:48:06;;;;;;;4.20;0.60;;;21.10;58.90;;;;;;5072992;28;20146;-56
2022/05/28 06:53:16;;;;;;;5.30;0.73;;;21.20;59.10;;;;;;5073049;28;20045;-56
2022/05/28 06:55:41;;;;;;;5.05;0.57;;;21.20;59.10;;;;;;5070625;28;20128;-56
2022/05/28 06:58:07;;;;;;;3.35;0.60;;;21.20;59.20;;;;;;5073610;28;20629;-55
2022/05/28 07:00:33;;;;;;;3.25;0.70;;;21.20;59.30;;;;;;5073374;28;20048;-56
2022/05/28 07:02:59;;;;;;;2.97;0.55;;;21.30;59.30;;;;;;5072139;28;20431;-56
2022/05/28 07:05:25;;;;;;;2.22;0.50;;;21.30;59.30;;;;;;5073011;28;20718;-56
2022/05/28 07:07:50;;;;;;;4.40;0.73;;;21.30;59.30;;;;;;5072972;28;20033;-56
2022/05/28 07:10:16;;;;;;;5.20;0.93;;;21.30;59.40;;;;;;5072363;28;20067;-56
2022/05/28 07:12:41;;;;;;;2.53;0.70;;;21.30;59.40;;;;;;5072860;28;20068;-56
2022/05/28 07:15:07;;;;;;;3.28;0.60;;;21.40;59.40;;;;;;5072841;28;20503;-56
2022/05/28 07:17:33;;;;;;;5.85;0.90;;;21.40;59.40;;;;;;5072213;28;20040;-56
2022/05/28 07:19:59;;;;;;;6.05;0.70;;;21.40;59.40;;;;;;5072448;28;20056;-56
2022/05/28 07:22:24;;;;;;;3.38;0.60;;;21.40;59.40;;;;;;5073254;28;20053;-56
2022/05/28 07:24:50;;;;;;;4.32;0.60;;;21.30;59.30;;;;;;5072069;28;20044;-56
2022/05/28 07:27:16;;;;;;;5.20;1.00;;;21.30;59.30;;;;;;5073121;28;20123;-56
2022/05/28 07:29:42;;;;;;;2.25;0.77;;;21.40;59.40;;;;;;5072701;28;20048;-57
2022/05/28 07:32:07;;;;;;;2.42;0.57;;;21.30;59.40;;;;;;5072130;28;20040;-56
2022/05/28 07:34:33;;;;;;;4.28;0.85;;;21.30;59.30;;;;;;5072921;28;20047;-56
2022/05/28 07:36:59;;;;;;;4.35;0.85;;;21.30;59.30;;;;;;5072631;28;20041;-57
2022/05/28 07:39:25;;;;;;;5.90;1.05;;;21.40;59.30;;;;;;5072159;28;20381;-56
2022/05/28 07:41:51;;;;;;;4.45;0.77;;;21.40;59.40;;;;;;5072467;28;20052;-57
2022/05/28 07:44:16;;;;;;;5.65;0.88;;;21.50;59.50;;;;;;5072715;28;20044;-56
2022/05/28 07:46:42;;;;;;;7.10;1.15;;;21.50;59.50;;;;;;5071793;28;20124;-57
2022/05/28 07:49:07;;;;;;;4.30;0.85;;;21.40;60.00;;;;;;5072635;28;20174;-56
2022/05/28 07:51:36;;;;;;;5.60;0.95;;;21.50;59.40;;;;;;5071702;28;20131;-57
2022/05/28 07:54:02;;;;;;;4.25;0.90;;;21.50;59.40;;;;;;5071975;28;20044;-57
2022/05/28 07:56:27;;;;;;;5.30;0.90;;;21.50;59.40;;;;;;5072249;28;20059;-57
2022/05/28 07:58:57;;;;;;;4.78;0.85;;;21.40;59.30;;;;;;5070820;28;20048;-57
2022/05/28 08:01:27;;;;;;;5.50;0.90;;;21.40;59.20;;;;;;5072705;28;20123;-57
2022/05/28 08:03:53;;;;;;;3.05;0.60;;;21.50;59.20;;;;;;5072204;28;20076;-56
2022/05/28 08:06:19;;;;;;;5.20;0.80;;;21.50;59.20;;;;;;5071708;28;20464;-57
2022/05/28 08:08:44;;;;;;;3.80;0.90;;;21.50;59.20;;;;;;5072179;28;20138;-57
2022/05/28 08:11:10;;;;;;;3.38;0.60;;;21.50;59.20;;;;;;5072460;28;20377;-58
2022/05/28 08:13:35;;;;;;;4.50;0.80;;;21.50;59.20;;;;;;5071884;28;20511;-57
2022/05/28 08:16:01;;;;;;;2.33;0.57;;;21.50;59.10;;;;;;5071529;28;20488;-57
2022/05/28 08:18:27;;;;;;;4.78;1.00;;;21.50;59.10;;;;;;5071751;28;20059;-57
2022/05/28 08:23:51;;;;;;;4.00;1.10;;;21.50;59.10;;;;;;5092664;28;20097;-56
2022/05/28 08:26:19;;;;;;;3.78;0.60;;;21.50;59.20;;;;;;5072190;28;20131;-62
2022/05/28 08:28:45;;;;;;;;;;;21.60;59.20;;;;;;5071866;28;20041;-57
2022/05/28 08:31:11;;;;;;;2.55;0.40;;;21.50;59.10;;;;;;5072540;28;19974;-56
2022/05/28 08:33:36;;;;;;;4.25;0.73;;;21.60;59.10;;;;;;5071821;28;20099;-57
2022/05/28 08:36:02;;;;;;;5.18;0.75;;;21.60;59.00;;;;;;5071876;28;20048;-57
2022/05/28 08:38:28;;;;;;;3.40;0.60;;;21.60;58.80;;;;;;5072218;28;20041;-56
2022/05/28 08:40:55;;;;;;;4.63;0.80;;;21.60;58.80;;;;;;5071143;28;20044;-58
2022/05/28 08:43:21;;;;;;;5.75;0.70;;;21.60;58.50;;;;;;5070883;28;20048;-57
2022/05/28 08:45:48;;;;;;;3.95;0.70;;;21.60;58.40;;;;;;5070755;28;20067;-57
2022/05/28 08:48:26;;;;;;;7.07;1.10;;;21.60;58.10;;;;;;5071682;28;20158;-57
2022/05/28 08:51:03;;;;;;;9.35;1.00;;;21.60;58.00;;;;;;5070537;28;20396;-57
2022/05/28 08:53:31;;;;;;;4.30;0.95;;;21.60;57.80;;;;;;5071860;28;20048;-57
2022/05/28 08:55:56;;;;;;;3.95;0.70;;;21.60;57.80;;;;;;5070656;28;20059;-57
2022/05/28 08:58:26;;;;;;;6.03;1.30;;;21.60;57.80;;;;;;5070912;28;20489;-56
2022/05/28 09:00:57;;;;;;;7.60;1.35;;;21.60;57.70;;;;;;5070764;28;20133;-57
2022/05/28 09:03:51;;;;;;;10.10;2.10;;;21.60;57.80;;;;;;5070511;28;20045;-58
2022/05/28 09:06:23;;;;;;;10.05;2.50;;;21.60;57.60;;;;;;5070867;28;20053;-58
2022/05/28 09:08:54;;;;;;;5.80;2.03;;;21.60;57.70;;;;;;5069840;28;20086;-57
2022/05/28 09:11:22;;;;;;;9.60;2.15;;;21.70;57.80;;;;;;5071536;28;20048;-57
2022/05/28 09:13:48;;;;;;;;;;;21.60;57.80;;;;;;5071995;28;20055;-57
2022/05/28 09:16:28;;;;;;;9.52;2.28;;;21.60;57.90;;;;;;5071294;28;20285;-57
2022/05/28 09:18:55;;;;;;;8.30;2.10;;;21.70;57.90;;;;;;5073462;28;20404;-57
2022/05/28 09:21:21;;;;;;;9.38;2.35;;;21.70;58.00;;;;;;5075237;28;20049;-56
2022/05/28 09:24:03;;;;;;;12.52;2.30;;;21.70;58.00;;;;;;5074140;28;20435;-57
2022/05/28 09:26:38;;;;;;;11.90;2.60;;;21.70;58.00;;;;;;5073468;28;20041;-56
2022/05/28 09:29:25;;;;;;;8.80;2.50;;;21.60;58.00;;;;;;5074360;28;20044;-57
2022/05/28 09:32:13;;;;;;;11.18;2.25;;;21.60;58.00;;;;;;5073191;28;20048;-57
2022/05/28 09:34:57;;;;;;;10.20;2.40;;;21.60;58.00;;;;;;5074435;28;20040;-56
2022/05/28 09:37:35;;;;;;;9.45;2.47;;;21.60;58.00;;;;;;5073496;28;20055;-57
2022/05/28 09:40:19;;;;;;;10.43;2.30;;;21.60;58.00;;;;;;5069798;28;20484;-57
2022/05/28 09:43:07;;;;;;;10.45;2.20;;;21.60;57.90;;;;;;5063809;28;20051;-57
2022/05/28 09:46:00;;;;;;;9.75;1.85;;;21.60;57.90;;;;;;5073535;28;20423;-57
2022/05/28 09:48:26;;;;;;;8.15;2.30;;;21.60;58.00;;;;;;5074526;28;20036;-57
2022/05/28 09:50:52;;;;;;;5.53;1.60;;;21.60;58.00;;;;;;5074025;28;20131;-57
2022/05/28 09:56:17;;;;;;;6.22;1.73;;;21.70;58.10;;;;;;5074180;28;20036;-58
2022/05/28 09:58:43;;;;;;;10.18;1.88;;;21.70;58.10;;;;;;5072209;28;20052;-57
2022/05/28 10:01:09;;;;;;;8.75;1.73;;;21.70;58.20;;;;;;5073323;28;20047;-58
2022/05/28 10:06:23;;;;;;;7.80;1.95;;;21.70;58.20;;;;;;5073105;28;20076;-57
2022/05/28 10:08:48;;;;;;;8.80;1.88;;;21.70;58.20;;;;;;5074427;28;20119;-57
2022/05/28 10:11:15;;;;;;;8.90;1.80;;;21.70;58.10;;;;;;5074406;28;20099;-57
2022/05/28 10:13:45;;;;;;;11.20;1.88;;;21.70;58.10;;;;;;5073370;28;20412;-58
2022/05/28 10:16:11;;;;;;;8.80;2.00;;;21.70;58.10;;;;;;5073920;28;20040;-57
2022/05/28 10:18:38;;;;;;;5.90;2.13;;;21.70;58.10;;;;;;5073376;28;20078;-58
2022/05/28 10:21:09;;;;;;;8.10;1.90;;;21.70;58.20;;;;;;5072804;28;20502;-58
2022/05/28 10:23:35;;;;;;;7.72;1.70;;;21.70;58.20;;;;;;5074322;28;20059;-57
2022/05/28 10:26:01;;;;;;;8.98;2.00;;;21.60;58.10;;;;;;5072819;28;20044;-57
2022/05/28 10:28:39;;;;;;;8.63;1.85;;;21.70;58.20;;;;;;5073487;28;20041;-58
2022/05/28 10:31:13;;;;;;;6.57;1.63;;;21.70;58.30;;;;;;5071884;28;20052;-57
2022/05/28 10:33:43;;;;;;;6.25;1.60;;;21.60;58.20;;;;;;5072297;28;20056;-58
2022/05/28 10:36:10;;;;;;;8.93;1.88;;;21.60;58.20;;;;;;5074655;28;20094;-57
2022/05/28 10:38:36;;;;;;;6.72;1.60;;;21.60;58.00;;;;;;5074237;28;20074;-58
2022/05/28 10:41:12;;;;;;;5.28;1.55;;;21.60;58.00;;;;;;5072955;28;20036;-57
2022/05/28 10:43:38;;;;;;;6.07;1.35;;;21.60;57.90;;;;;;5072772;28;20052;-57
2022/05/28 10:46:31;;;;;;;5.90;1.95;;;21.60;57.90;;;;;;5073330;28;20056;-57
2022/05/28 10:49:09;;;;;;;4.85;1.55;;;21.60;57.70;;;;;;5072924;28;20053;-57
2022/05/28 10:51:37;;;;;;;12.23;1.50;;;21.60;57.80;;;;;;5072892;28;20403;-58
2022/05/28 10:54:11;;;;;;;7.40;1.50;;;21.70;57.80;;;;;;5073660;28;20044;-57
2022/05/28 10:57:04;;;;;;;5.45;1.55;;;21.60;57.70;;;;;;5072881;28;20059;-57
2022/05/28 10:59:37;;;;;;;8.55;1.92;;;21.60;57.70;;;;;;5072894;28;20048;-57
2022/05/28 11:02:42;;;;;;;7.88;1.50;;;21.70;57.70;;;;;;5072114;28;20044;-57
2022/05/28 11:05:41;;;;;;;9.00;1.83;;;21.70;57.70;;;;;;5050808;28;20056;-58
2022/05/28 11:08:22;;;;;;;8.35;1.38;;;21.60;57.40;;;;;;5072538;28;20048;-57
2022/05/28 11:10:50;;;;;;;10.85;1.90;;;21.60;57.50;;;;;;5070706;28;20048;-57
2022/05/28 11:13:27;;;;;;;6.50;1.63;;;21.60;57.40;;;;;;5072895;28;20032;-57
2022/05/28 11:15:59;;;;;;;7.27;1.87;;;21.60;57.40;;;;;;5068789;28;20037;-57
2022/05/28 11:18:50;;;;;;;7.97;1.73;;;21.60;57.50;;;;;;5071287;28;20043;-57
2022/05/28 11:21:47;;;;;;;6.18;1.48;;;21.60;57.60;;;;;;5071098;28;20139;-57
2022/05/28 11:24:27;;;;;;;9.38;1.80;;;21.60;57.70;;;;;;5071025;28;20133;-57
2022/05/28 11:26:59;;;;;;;6.65;1.60;;;21.60;57.80;;;;;;5072758;28;20045;-57
2022/05/28 11:29:43;;;;;;;8.05;1.48;;;21.60;57.80;;;;;;5073035;28;20040;-57
2022/05/28 11:32:14;;;;;;;6.90;1.40;;;21.60;57.80;;;;;;5073010;28;20045;-57
2022/05/28 11:35:12;;;;;;;9.40;1.60;;;21.60;57.90;;;;;;5071765;28;20059;-57
2022/05/28 11:37:48;;;;;;;5.28;1.45;;;21.70;58.00;;;;;;5071135;28;20052;-57
2022/05/28 11:40:24;;;;;;;4.93;1.30;;;21.70;58.00;;;;;;5047966;28;20048;-57
2022/05/28 11:43:03;;;;;;;6.20;1.38;;;21.70;58.20;;;;;;5064980;28;20056;-57
2022/05/28 11:45:36;;;;;;;9.85;1.50;;;21.70;58.20;;;;;;5052075;28;20424;-58
2022/05/28 11:48:05;;;;;;;6.55;1.02;;;21.70;58.40;;;;;;5051227;28;20049;-57
2022/05/28 11:53:53;;;;;;;9.85;1.30;;;21.70;58.30;;;;;;5065242;28;20052;-56
2022/05/28 11:56:22;;;;;;;6.60;1.77;;;21.70;58.20;;;;;;5069912;28;20068;-57
2022/05/28 11:59:00;;;;;;;5.53;1.60;;;21.70;58.00;;;;;;5071036;28;20040;-57
2022/05/28 12:01:28;;;;;;;5.95;1.05;;;21.70;57.50;;;;;;5067884;28;20057;-57
2022/05/28 12:03:53;;;;;;;6.45;1.20;;;21.60;57.50;;;;;;5051142;28;20048;-57
2022/05/28 12:06:30;;;;;;;6.18;1.48;;;21.60;57.30;;;;;;5051720;28;20039;-57
2022/05/28 12:09:06;;;;;;;5.47;1.40;;;21.60;57.20;;;;;;5051132;28;20075;-57
2022/05/28 12:11:58;;;;;;;8.07;1.67;;;21.60;57.20;;;;;;5052093;28;20059;-57
2022/05/28 12:14:36;;;;;;;7.07;1.73;;;21.60;57.10;;;;;;5052587;28;20135;-57
2022/05/28 12:17:04;;;;;;;5.47;1.15;;;21.60;57.20;;;;;;5050983;28;20064;-57
2022/05/28 12:19:30;;;;;;;6.32;1.65;;;21.60;57.10;;;;;;5050470;28;20045;-56
2022/05/28 12:22:09;;;;;;;6.28;1.75;;;21.60;57.10;;;;;;5051628;28;20141;-57
2022/05/28 12:24:37;;;;;;;7.43;1.15;;;21.70;57.10;;;;;;5052316;28;20059;-57
2022/05/28 12:29:48;;;;;;;7.82;1.38;;;21.70;57.10;;;;;;5052284;28;20080;-57
2022/05/28 12:32:17;;;;;;;7.55;1.50;;;21.70;57.10;;;;;;5052186;28;20075;-56
2022/05/28 12:35:01;;;;;;;4.95;1.30;;;21.70;57.10;;;;;;5051050;28;20087;-57
2022/05/28 12:37:36;;;;;;;7.28;1.45;;;21.70;57.00;;;;;;5051147;28;20059;-56
2022/05/28 12:40:14;;;;;;;7.60;1.73;;;21.70;57.00;;;;;;5050926;28;20478;-56
2022/05/28 12:42:39;;;;;;;7.03;1.30;;;21.60;57.00;;;;;;5052164;28;20071;-56
2022/05/28 12:45:37;;;;;;;6.10;1.48;;;21.60;56.90;;;;;;5051985;28;20130;-56
2022/05/28 12:48:05;;;;;;;5.18;1.23;;;21.70;56.90;;;;;;5045334;28;20057;-56
2022/05/28 12:50:49;;;;;;;4.80;1.02;;;21.60;56.90;;;;;;5050864;28;20069;-57
2022/05/28 12:53:18;;;;;;;6.82;1.45;;;21.70;56.70;;;;;;5054904;28;20052;-57
2022/05/28 12:55:44;;;;;;;8.65;1.40;;;21.60;56.70;;;;;;5055046;28;20049;-57
2022/05/28 12:58:27;;;;;;;5.10;1.38;;;21.60;57.00;;;;;;5073335;28;20094;-57
2022/05/28 13:01:01;;;;;;;6.82;1.40;;;21.60;56.80;;;;;;5074195;28;20392;-56
2022/05/28 13:03:30;;;;;;;8.25;1.35;;;21.60;56.80;;;;;;5091050;28;20491;-56
2022/05/28 13:06:12;;;;;;;7.80;1.67;;;21.60;56.90;;;;;;5074344;28;20067;-57
2022/05/28 13:08:44;;;;;;;6.72;1.45;;;21.60;56.90;;;;;;5073658;28;20464;-57
2022/05/28 13:11:47;;;;;;;7.03;1.55;;;21.60;56.90;;;;;;5074034;28;20439;-57
2022/05/28 13:14:38;;;;;;;4.55;1.30;;;21.70;57.10;;;;;;5020330;28;20600;-57
2022/05/28 13:17:32;;;;;;;6.53;1.33;;;21.70;57.10;;;;;;5053974;28;20471;-58